createdAt,value
2023-03-03T16:10:19.293Z,0.90
2023-03-03T16:12:58.337Z,0.87
2023-03-03T16:15:42.820Z,0.80
2023-03-03T16:18:15.649Z,1.00
2023-03-03T16:20:58.392Z,0.93
2023-03-03T16:23:48.943Z,0.97
2023-03-03T16:26:18.586Z,0.90
2023-03-03T16:29:03.849Z,0.70
2023-03-03T16:31:42.391Z,1.10
2023-03-03T16:34:33.800Z,0.60
2023-03-03T16:37:01.683Z,0.63
2023-03-03T16:39:41.466Z,0.93
2023-03-03T16:42:21.640Z,0.87
2023-03-03T16:44:48.261Z,0.60
2023-03-03T16:47:27.183Z,0.90
2023-03-03T16:50:21.784Z,0.70
2023-03-03T16:52:55.164Z,0.80
2023-03-03T16:55:30.718Z,0.77
2023-03-03T16:58:22.265Z,0.50
2023-03-03T17:00:55.074Z,0.80
2023-03-03T17:03:21.741Z,0.70
2023-03-03T17:06:04.084Z,0.80
2023-03-03T17:09:01.732Z,0.70
2023-03-03T17:11:35.086Z,1.03
2023-03-03T17:14:47.600Z,0.87
2023-03-03T17:18:04.736Z,0.70
2023-03-03T17:20:50.563Z,0.90
2023-03-03T17:23:42.767Z,0.70
2023-03-03T17:26:24.447Z,0.70
2023-03-03T17:29:00.099Z,0.70
2023-03-03T17:32:04.503Z,0.97
2023-03-03T17:34:48.232Z,0.70
2023-03-03T17:37:28.112Z,0.63
2023-03-03T17:40:04.179Z,0.60
2023-03-03T17:43:09.293Z,0.70
2023-03-03T17:45:41.084Z,0.73
2023-03-03T17:48:07.624Z,0.67
2023-03-03T17:51:01.339Z,0.70
2023-03-03T17:53:55.470Z,1.27
2023-03-03T17:56:30.181Z,0.70
2023-03-03T17:59:22.173Z,0.60
2023-03-03T18:02:08.374Z,0.43
2023-03-03T18:04:53.168Z,0.80
2023-03-03T18:07:30.271Z,0.90
2023-03-03T18:10:24.808Z,0.50
2023-03-03T18:13:05.857Z,0.50
2023-03-03T18:15:50.365Z,0.50
2023-03-03T18:18:54.337Z,0.33
2023-03-03T18:22:05.490Z,0.70
2023-03-03T18:24:53.601Z,0.60
2023-03-03T18:27:31.306Z,0.60
2023-03-03T18:30:27.808Z,0.90
2023-03-03T18:32:57.360Z,0.60
2023-03-03T18:35:34.278Z,0.37
2023-03-03T18:38:16.328Z,0.57
2023-03-03T18:40:48.990Z,0.50
2023-03-03T18:43:43.506Z,0.50
2023-03-03T18:46:25.510Z,0.67
2023-03-03T18:49:05.678Z,0.53
2023-03-03T18:51:35.581Z,0.57
2023-03-03T18:54:30.534Z,0.40
2023-03-03T18:56:57.440Z,0.60
2023-03-03T18:59:36.497Z,0.67
2023-03-03T19:02:18.807Z,0.30
2023-03-03T19:04:55.983Z,0.67
2023-03-03T19:07:46.147Z,0.50
2023-03-03T19:10:21.964Z,0.73
2023-03-03T19:12:52.698Z,0.50
2023-03-03T19:15:31.643Z,0.83
2023-03-03T19:18:23.915Z,0.43
2023-03-03T19:21:00.809Z,0.47
2023-03-03T19:24:00.041Z,0.50
2023-03-03T19:26:31.513Z,0.40
2023-03-03T19:29:13.196Z,0.40
2023-03-03T19:31:48.459Z,0.47
2023-03-03T19:34:56.941Z,0.23
2023-03-03T19:37:45.358Z,0.43
2023-03-03T19:40:18.135Z,0.40
2023-03-03T19:43:16.931Z,0.40
2023-03-03T19:46:23.043Z,0.30
2023-03-03T19:49:05.876Z,0.50
2023-03-03T19:51:51.246Z,0.57
2023-03-03T19:54:30.081Z,0.40
2023-03-03T19:57:01.000Z,0.30
2023-03-03T19:59:30.726Z,0.83
2023-03-03T20:02:02.519Z,0.40
2023-03-03T20:05:03.528Z,0.30
2023-03-03T20:07:47.162Z,0.23
2023-03-03T20:10:22.631Z,0.20
2023-03-03T20:13:22.780Z,0.20
2023-03-03T20:16:22.732Z,0.40
2023-03-03T20:19:18.410Z,0.20
2023-03-03T20:22:07.647Z,0.23
2023-03-03T20:25:14.628Z,0.33
2023-03-03T20:28:02.002Z,0.20
2023-03-03T20:30:44.982Z,0.43
2023-03-03T20:33:44.204Z,0.40
2023-03-03T20:36:26.897Z,0.30
2023-03-03T20:39:16.413Z,0.30
2023-03-03T20:41:52.081Z,0.40
2023-03-03T20:44:45.890Z,0.30
2023-03-03T20:47:46.856Z,0.30
2023-03-03T20:50:55.156Z,0.33
2023-03-03T20:53:22.421Z,0.30
2023-03-03T20:56:00.161Z,0.40
2023-03-03T20:58:55.985Z,0.20
2023-03-03T21:01:38.855Z,0.37
2023-03-03T21:04:40.989Z,0.10
2023-03-03T21:07:07.680Z,0.10
2023-03-03T21:09:36.737Z,0.10
2023-03-03T21:12:31.067Z,0.10
2023-03-03T21:15:02.686Z,0.00
2023-03-03T21:17:31.038Z,0.10
2023-03-03T21:20:22.885Z,0.10
2023-03-03T21:22:50.086Z,0.20
2023-03-03T21:25:42.887Z,0.10
2023-03-03T21:28:33.750Z,0.10
2023-03-03T21:31:03.440Z,0.10
2023-03-03T21:33:46.874Z,0.17
2023-03-03T21:36:16.161Z,0.10
2023-03-03T21:38:43.301Z,0.20
2023-03-03T21:41:10.107Z,0.20
2023-03-03T21:43:46.092Z,0.10
2023-03-03T21:46:13.705Z,0.20
2023-03-03T21:48:41.807Z,0.30
2023-03-03T21:51:09.809Z,0.10
2023-03-03T21:53:36.535Z,0.10
2023-03-03T21:56:03.270Z,0.20
2023-03-03T21:58:29.895Z,0.10
2023-03-03T22:00:56.548Z,0.20
2023-03-03T22:03:23.836Z,0.10
2023-03-03T22:05:50.502Z,0.30
2023-03-03T22:08:22.763Z,0.20
2023-03-03T22:10:56.116Z,0.20
2023-03-03T22:13:24.769Z,0.30
2023-03-03T22:15:52.290Z,0.10
2023-03-03T22:18:19.729Z,0.10
2023-03-03T22:20:47.884Z,0.37
2023-03-03T22:23:15.987Z,0.30
2023-03-03T22:25:42.672Z,0.20
2023-03-03T22:28:09.498Z,0.10
2023-03-03T22:30:37.139Z,0.10
2023-03-03T22:33:04.080Z,0.17
2023-03-03T22:35:31.238Z,0.10
2023-03-03T22:37:58.161Z,0.10
2023-03-03T22:40:25.246Z,0.30
2023-03-03T22:42:51.988Z,0.30
2023-03-03T22:45:18.679Z,0.40
2023-03-03T22:47:45.350Z,0.10
2023-03-03T22:50:12.967Z,0.17
2023-03-03T22:52:39.631Z,0.20
2023-03-03T22:55:06.904Z,0.40
2023-03-03T22:57:33.607Z,0.27
2023-03-03T23:00:00.269Z,0.20
2023-03-03T23:02:26.870Z,0.00
2023-03-03T23:04:58.349Z,0.10
2023-03-03T23:07:26.476Z,0.40
2023-03-03T23:09:53.112Z,0.20
2023-03-03T23:12:19.977Z,0.20
2023-03-03T23:14:46.597Z,0.13
2023-03-03T23:17:13.275Z,0.20
2023-03-03T23:19:39.925Z,0.30
2023-03-03T23:22:06.545Z,0.20
2023-03-03T23:24:33.328Z,0.10
2023-03-03T23:27:00.864Z,0.10
2023-03-03T23:29:27.526Z,0.10
2023-03-03T23:31:54.297Z,0.40
2023-03-03T23:34:21.160Z,0.30
2023-03-03T23:36:47.890Z,0.10
2023-03-03T23:39:15.359Z,0.10
2023-03-03T23:41:42.187Z,0.20
2023-03-03T23:44:08.901Z,0.30
2023-03-03T23:46:35.615Z,0.13
2023-03-03T23:49:02.469Z,0.17
2023-03-03T23:51:29.152Z,0.10
2023-03-03T23:53:56.385Z,0.20
2023-03-03T23:56:23.378Z,0.17
2023-03-03T23:58:49.982Z,0.57
